Time;durP1;ratioP1;P1;durP2;ratioP2;P2;SDS_P1;SDS_P2;PMS_P1;PMS_P2;Temp;Humidity;BMP_temperature;BMP_pressure;BME280_temperature;BME280_humidity;BME280_pressure;Samples;Min_cycle;Max_cycle;Signal;HPM_P1;HPM_P2
2022/03/29 00:00:33;;;;;;;;;40.75;31.00;;;;;18.13;33.94;100731.66;5054846;28;45180;-52
2022/03/29 00:02:59;;;;;;;;;41.80;32.20;;;;;18.12;34.09;100730.00;5057143;28;45325;-48
2022/03/29 00:05:25;;;;;;;;;38.20;31.00;;;;;18.10;34.00;100726.66;5061595;28;45391;-51
2022/03/29 00:07:50;;;;;;;;;35.50;32.75;;;;;18.06;34.27;100722.72;5061790;28;46331;-49
2022/03/29 00:10:16;;;;;;;;;37.50;31.75;;;;;18.01;34.10;100718.78;5061682;28;45460;-54
2022/03/29 00:12:41;;;;;;;;;39.50;29.50;;;;;17.92;34.09;100703.69;5061841;28;45424;-55
2022/03/29 00:15:07;;;;;;;;;43.50;34.00;;;;;17.91;34.13;100715.88;5062045;28;45797;-53
2022/03/29 00:17:33;;;;;;;;;42.60;34.00;;;;;17.87;34.12;100710.03;5061514;28;45448;-49
2022/03/29 00:19:59;;;;;;;;;43.50;34.00;;;;;17.82;34.39;100701.63;5061145;28;45496;-48
2022/03/29 00:22:24;;;;;;;;;35.75;29.00;;;;;17.82;34.79;100698.03;5061719;28;45365;-53
2022/03/29 00:24:50;;;;;;;;;40.50;32.75;;;;;17.83;34.48;100686.66;5061616;28;45349;-54
2022/03/29 00:27:15;;;;;;;;;37.75;30.00;;;;;17.84;34.50;100687.50;5060187;28;46806;-53
2022/03/29 00:29:41;;;;;;;;;35.25;32.50;;;;;17.81;34.79;100688.84;5077069;28;45463;-53
2022/03/29 00:32:07;;;;;;;;;41.25;33.00;;;;;17.83;34.80;100689.44;5061172;28;45203;-53
2022/03/29 00:34:34;;;;;;;;;38.00;33.00;;;;;17.81;34.96;100688.84;5094329;27;45371;-52
2022/03/29 00:37:00;;;;;;;;;45.00;34.00;;;;;17.81;34.79;100679.69;5061262;28;45776;-50
2022/03/29 00:39:25;;;;;;;;;43.00;31.50;;;;;17.82;35.18;100678.59;5076681;28;45901;-52
2022/03/29 00:41:51;;;;;;;;;41.50;32.75;;;;;17.64;34.73;100649.25;5094322;27;45402;-50
2022/03/29 00:44:17;;;;;;;;;42.00;33.75;;;;;17.75;34.79;100664.94;5073320;28;45589;-51
2022/03/29 00:46:42;;;;;;;;;38.50;33.75;;;;;17.71;35.09;100650.75;5011215;28;45682;-49
2022/03/29 00:49:08;;;;;;;;;41.50;33.50;;;;;17.50;34.78;100616.38;5039607;28;45380;-53
2022/03/29 00:51:34;;;;;;;;;37.25;31.00;;;;;17.76;35.10;100652.72;5056292;28;45488;-50
2022/03/29 00:53:59;;;;;;;;;41.00;32.20;;;;;17.72;35.00;100649.63;5041335;28;45316;-52
2022/03/29 00:56:25;;;;;;;;;37.00;32.25;;;;;17.70;34.99;100645.44;5040732;28;46471;-52
2022/03/29 00:58:50;;;;;;;;;43.75;34.00;;;;;17.60;35.10;100629.53;5041379;28;45224;-50
2022/03/29 01:01:16;;;;;;;;;36.50;29.25;;;;;17.68;35.42;100633.78;5041340;28;45244;-52
2022/03/29 01:03:42;;;;;;;;;44.50;33.25;;;;;17.66;34.77;100624.88;5041561;28;45603;-50
2022/03/29 01:06:08;;;;;;;;;37.75;33.25;;;;;17.70;35.35;100628.78;5022796;28;46161;-53
2022/03/29 01:08:35;;;;;;;;;42.20;33.60;;;;;17.51;35.56;100587.56;5041083;28;45328;-51
2022/03/29 01:11:00;;;;;;;;;32.40;28.20;;;;;17.72;35.13;100623.84;5056234;28;45370;-52
2022/03/29 01:13:26;;;;;;;;;46.75;34.00;;;;;17.70;35.12;100620.47;5023319;28;45628;-50
2022/03/29 01:15:51;;;;;;;;;39.75;34.25;;;;;17.42;34.97;100591.91;5036876;28;45459;-51
2022/03/29 01:18:20;;;;;;;;;40.75;32.50;;;;;17.60;35.42;100622.06;5052706;28;45470;-49
2022/03/29 01:20:51;;;;;;;;;39.40;33.80;;;;;17.57;34.85;100611.47;5019914;28;45433;-53
2022/03/29 01:23:17;;;;;;;;;41.40;34.00;;;;;17.48;35.43;100605.56;5037704;28;45406;-49
2022/03/29 01:25:43;;;;;;;;;37.75;31.25;;;;;17.31;35.33;100580.72;5019638;28;45592;-49
2022/03/29 01:28:09;;;;;;;;;40.75;32.75;;;;;17.32;35.89;100587.94;5037163;28;45533;-49
2022/03/29 01:30:34;;;;;;;;;42.50;34.00;;;;;17.52;35.16;100603.09;5003374;28;45444;-54
2022/03/29 01:33:01;;;;;;;;;37.50;31.75;;;;;17.50;35.13;100602.50;5055523;28;45361;-50
2022/03/29 01:35:27;;;;;;;;;42.60;33.00;;;;;17.44;35.01;100604.41;5057374;28;45498;-54
2022/03/29 01:37:53;;;;;;;;;36.00;30.75;;;;;17.44;34.84;100603.56;5057634;28;45433;-52
2022/03/29 01:40:20;;;;;;;;;38.25;29.50;;;;;17.39;34.88;100592.44;5039362;28;45398;-52
2022/03/29 01:42:56;;;;;;;;;41.40;33.20;;;;;17.37;34.55;100597.38;5057569;28;45494;-52
2022/03/29 01:45:24;;;;;;;;;35.60;30.00;;;;;17.34;34.67;100584.88;5057362;28;46215;-51
2022/03/29 01:47:50;;;;;;;;;39.60;32.80;;;;;17.11;34.81;100555.50;5057258;28;45475;-49
2022/03/29 01:50:16;;;;;;;;;34.50;28.00;;;;;17.34;34.44;100585.72;5057384;28;45380;-52
2022/03/29 01:52:45;;;;;;;;;35.80;29.20;;;;;17.34;34.47;100582.09;5057443;28;45648;-50
2022/03/29 01:55:11;;;;;;;;;30.40;26.80;;;;;17.38;34.24;100586.03;5056847;28;45720;-50
2022/03/29 01:57:37;;;;;;;;;30.40;26.00;;;;;17.14;34.10;100541.13;5055394;28;45441;-50
2022/03/29 02:02:50;;;;;;;;;36.80;28.80;;;;;17.37;33.74;100573.28;5041408;28;45416;-52
2022/03/29 02:05:17;;;;;;;;;37.25;29.75;;;;;17.18;33.97;100536.75;5041951;28;45484;-49
2022/03/29 02:07:43;;;;;;;;;32.40;29.60;;;;;17.39;33.88;100561.91;5055678;28;45532;-53
2022/03/29 02:10:09;;;;;;;;;31.00;27.00;;;;;17.25;33.73;100550.41;5052126;28;45201;-52
2022/03/29 02:12:34;;;;;;;;;35.50;27.25;;;;;17.22;33.36;100548.97;5068674;28;45571;-54
2022/03/29 02:15:00;;;;;;;;;31.25;25.25;;;;;17.20;33.49;100545.63;5070766;28;46007;-51
2022/03/29 02:17:25;;;;;;;;;30.25;27.75;;;;;17.16;33.62;100539.78;5056351;28;45299;-56
2022/03/29 02:19:51;;;;;;;;;32.75;27.25;;;;;16.97;33.50;100502.41;5038147;28;45504;-49
2022/03/29 02:22:16;;;;;;;;;31.25;25.75;;;;;17.13;33.72;100533.94;5056667;28;45390;-48
2022/03/29 02:24:42;;;;;;;;;37.00;30.25;;;;;17.12;34.03;100530.31;5056404;28;45438;-50
2022/03/29 02:27:08;;;;;;;;;30.25;26.25;;;;;17.12;33.99;100512.84;5054931;28;45752;-51
2022/03/29 02:29:34;;;;;;;;;26.40;21.20;;;;;17.16;33.90;100520.38;5056414;28;45441;-52
2022/03/29 02:31:59;;;;;;;;;28.50;22.00;;;;;16.99;33.63;100487.19;5056154;28;45394;-52
2022/03/29 02:34:25;;;;;;;;;37.25;28.75;;;;;17.03;33.28;100481.97;5038182;28;45841;-51
2022/03/29 02:36:50;;;;;;;;;31.25;26.50;;;;;17.22;33.01;100515.69;5038135;28;45489;-51
2022/03/29 02:39:16;;;;;;;;;34.75;29.00;;;;;17.19;33.34;100511.50;5038460;28;45271;-54
2022/03/29 02:41:42;;;;;;;;;33.00;25.50;;;;;17.19;33.53;100500.41;5056893;28;45446;-51
2022/03/29 02:44:07;;;;;;;;;30.75;26.00;;;;;17.19;32.46;100496.84;5037777;28;47686;-52
2022/03/29 02:46:34;;;;;;;;;28.25;27.25;;;;;17.13;33.13;100487.59;5055987;28;45212;-53
2022/03/29 02:49:00;;;;;;;;;31.40;25.40;;;;;17.07;32.74;100488.66;5056032;28;45260;-52
2022/03/29 02:51:25;;;;;;;;;23.80;23.00;;;;;17.04;32.67;100480.88;5056507;28;45384;-51
2022/03/29 02:53:51;;;;;;;;;27.25;21.75;;;;;17.11;32.48;100486.19;5055947;28;46157;-49
2022/03/29 02:56:16;;;;;;;;;24.00;20.75;;;;;17.17;32.22;100502.63;5055695;28;45544;-51
2022/03/29 02:58:42;;;;;;;;;28.25;24.25;;;;;17.20;31.89;100490.19;5056438;28;45401;-49
2022/03/29 03:01:07;;;;;;;;;27.50;25.25;;;;;17.21;32.09;100489.06;5056385;28;45359;-49
2022/03/29 03:03:33;;;;;;;;;24.00;20.75;;;;;17.01;31.19;100462.78;5056002;28;46175;-53
2022/03/29 03:05:58;;;;;;;;;27.25;23.00;;;;;17.05;30.76;100486.16;5054302;28;45371;-49
2022/03/29 03:08:24;;;;;;;;;25.00;23.75;;;;;16.84;31.90;100454.59;5056207;28;45397;-49
2022/03/29 03:10:50;;;;;;;;;26.00;24.00;;;;;17.08;30.86;100476.50;5055947;28;45442;-48
2022/03/29 03:13:15;;;;;;;;;26.00;19.50;;;;;17.14;31.56;100480.13;5055788;28;47038;-48
2022/03/29 03:15:41;;;;;;;;;21.75;19.00;;;;;17.05;31.05;100440.97;5055793;28;45343;-54
2022/03/29 03:18:08;;;;;;;;;29.00;21.00;;;;;17.16;31.40;100459.38;5055613;28;45333;-53
2022/03/29 03:20:34;;;;;;;;;23.60;22.00;;;;;17.18;30.44;100459.94;5055992;28;45406;-54
2022/03/29 03:22:59;;;;;;;;;31.00;27.50;;;;;17.16;31.99;100466.84;5055352;28;46383;-50
2022/03/29 03:25:25;;;;;;;;;29.50;23.00;;;;;17.10;32.06;100454.88;5037792;28;45851;-50
2022/03/29 03:27:51;;;;;;;;;39.00;30.40;;;;;17.11;32.79;100447.38;5055812;28;45500;-50
2022/03/29 03:30:17;;;;;;;;;33.50;25.00;;;;;17.02;33.48;100452.59;5054976;28;45488;-50
2022/03/29 03:32:42;;;;;;;;;32.00;27.75;;;;;16.99;33.89;100456.69;5055600;28;45561;-50
2022/03/29 03:35:08;;;;;;;;;30.75;27.00;;;;;16.98;33.78;100456.94;5055658;28;45381;-50
2022/03/29 03:37:34;;;;;;;;;32.00;29.00;;;;;16.84;34.15;100420.47;5055159;28;45365;-48
2022/03/29 03:40:00;;;;;;;;;31.80;27.00;;;;;16.96;33.75;100439.75;5056352;28;45380;-52
2022/03/29 03:42:26;;;;;;;;;25.80;24.80;;;;;16.91;33.62;100449.66;5055321;28;45803;-51
2022/03/29 03:44:52;;;;;;;;;38.00;26.00;;;;;16.61;33.81;100415.00;5040560;28;46085;-54
2022/03/29 03:47:17;;;;;;;;;27.75;24.50;;;;;16.87;33.78;100439.38;5041572;28;45434;-49
2022/03/29 03:49:43;;;;;;;;;28.00;25.75;;;;;16.86;33.95;100432.16;5055898;28;45528;-51
2022/03/29 03:52:08;;;;;;;;;32.25;30.50;;;;;16.56;33.81;100403.88;5036867;28;45318;-51
2022/03/29 03:54:35;;;;;;;;;30.25;26.25;;;;;16.76;33.24;100430.13;5071163;28;45235;-50
2022/03/29 03:57:00;;;;;;;;;29.20;25.20;;;;;16.69;33.78;100421.19;5055389;28;45304;-48
2022/03/29 03:59:26;;;;;;;;;34.25;27.00;;;;;16.64;33.51;100424.72;5055881;28;45799;-53
2022/03/29 04:01:51;;;;;;;;;33.75;27.00;;;;;16.60;33.70;100416.09;5055470;28;45724;-51
2022/03/29 04:04:17;;;;;;;;;29.50;25.00;;;;;16.60;33.32;100424.41;5055088;28;45314;-50
2022/03/29 04:06:42;;;;;;;;;30.75;26.25;;;;;16.54;33.44;100417.13;5070890;28;45413;-49
2022/03/29 04:09:08;;;;;;;;;29.50;24.00;;;;;16.45;33.44;100413.16;5054692;28;45412;-49
2022/03/29 04:11:33;;;;;;;;;31.50;26.75;;;;;16.16;33.50;100382.94;5055044;28;46245;-51
2022/03/29 04:13:59;;;;;;;;;23.00;21.75;;;;;16.44;33.69;100428.09;5055201;28;45352;-49
2022/03/29 04:16:25;;;;;;;;;25.50;24.75;;;;;16.28;33.59;100408.56;5055185;28;45311;-47
2022/03/29 04:18:51;;;;;;;;;27.80;25.00;;;;;16.19;33.81;100394.31;5055357;28;45339;-49
2022/03/29 04:21:16;;;;;;;;;32.00;24.60;;;;;16.36;33.65;100430.25;5054791;28;46307;-49
2022/03/29 04:23:42;;;;;;;;;25.25;21.25;;;;;16.38;34.12;100422.50;5054699;28;45280;-53
2022/03/29 04:26:07;;;;;;;;;22.50;21.75;;;;;16.43;33.47;100418.13;5055098;28;45369;-53
2022/03/29 04:28:33;;;;;;;;;22.00;18.25;;;;;16.48;33.71;100423.69;5055114;28;45527;-55
2022/03/29 04:30:59;;;;;;;;;21.75;18.75;;;;;16.46;33.59;100423.97;5054988;28;45819;-53
2022/03/29 04:33:27;;;;;;;;;27.60;20.00;;;;;16.38;34.29;100407.81;5054862;28;45374;-48
2022/03/29 04:35:52;;;;;;;;;25.60;23.20;;;;;16.47;34.08;100422.03;5055227;28;45458;-50
2022/03/29 04:38:18;;;;;;;;;29.75;24.00;;;;;16.34;34.16;100410.25;5054725;28;45437;-51
2022/03/29 04:40:44;;;;;;;;;26.00;24.50;;;;;16.23;34.83;100408.47;5054950;28;46286;-49
2022/03/29 04:43:09;;;;;;;;;23.00;22.00;;;;;16.12;34.81;100405.56;5054767;28;45361;-54
2022/03/29 04:45:35;;;;;;;;;24.50;22.00;;;;;16.01;34.91;100406.53;5054587;28;45217;-51
2022/03/29 04:48:00;;;;;;;;;23.50;21.50;;;;;15.90;35.29;100415.78;5038255;28;45490;-48
2022/03/29 04:50:26;;;;;;;;;30.25;23.00;;;;;16.00;35.66;100404.84;5055582;28;45560;-51
2022/03/29 04:52:51;;;;;;;;;24.25;22.75;;;;;16.10;35.49;100405.00;5039980;28;45372;-55
2022/03/29 04:55:17;;;;;;;;;25.75;20.75;;;;;15.91;36.10;100368.44;5039675;28;45398;-49
2022/03/29 04:57:44;;;;;;;;;23.50;20.25;;;;;16.15;35.59;100395.06;5058300;28;45375;-53
2022/03/29 05:00:12;;;;;;;;;25.60;20.20;;;;;16.11;35.44;100398.38;5057843;28;46652;-51
2022/03/29 05:02:38;;;;;;;;;24.80;21.20;;;;;15.94;36.11;100406.72;5057684;28;45456;-52
2022/03/29 05:05:04;;;;;;;;;29.00;22.20;;;;;15.94;35.72;100417.81;5040018;28;45419;-51
2022/03/29 05:07:29;;;;;;;;;28.25;23.75;;;;;16.03;35.83;100415.44;5057994;28;45666;-49
2022/03/29 05:09:55;;;;;;;;;27.50;23.00;;;;;16.10;35.35;100406.91;5039235;28;45354;-49
2022/03/29 05:12:20;;;;;;;;;24.75;20.75;;;;;16.16;35.92;100405.88;5058017;28;45397;-52
2022/03/29 05:14:46;;;;;;;;;20.00;17.25;;;;;16.03;35.84;100379.44;5057827;28;45430;-50
2022/03/29 05:17:11;;;;;;;;;23.50;21.00;;;;;16.22;35.29;100409.59;5058217;28;45308;-53
2022/03/29 05:19:37;;;;;;;;;23.75;18.25;;;;;15.82;35.79;100348.72;5057664;28;46428;-49
2022/03/29 05:22:03;;;;;;;;;29.25;27.25;;;;;16.24;35.42;100407.38;5056769;28;45389;-49
2022/03/29 05:24:29;;;;;;;;;32.20;26.00;;;;;16.26;35.59;100394.97;5039705;28;45401;-49
2022/03/29 05:26:54;;;;;;;;;26.00;22.25;;;;;16.24;35.71;100396.31;5039816;28;45434;-50
2022/03/29 05:29:20;;;;;;;;;27.50;23.25;;;;;16.16;35.90;100391.22;5057465;28;46615;-50
2022/03/29 05:31:46;;;;;;;;;33.20;26.00;;;;;16.09;35.98;100389.50;5057148;28;45262;-52
2022/03/29 05:34:13;;;;;;;;;30.75;25.50;;;;;16.18;35.87;100391.81;5039605;28;45501;-50
2022/03/29 05:36:43;;;;;;;;;25.00;22.40;;;;;16.26;35.83;100399.66;5058075;28;45617;-53
2022/03/29 05:39:10;;;;;;;;;23.40;21.40;;;;;16.27;36.06;100384.69;5039255;28;45418;-50
2022/03/29 05:41:35;;;;;;;;;23.80;20.00;;;;;16.35;35.62;100388.94;5057045;28;45414;-56
2022/03/29 05:44:01;;;;;;;;;33.75;24.25;;;;;16.28;36.42;100371.69;5057436;28;45334;-50
2022/03/29 05:49:10;;;;;;;;;23.60;21.60;;;;;16.23;35.91;100380.78;5057262;28;45374;-51
2022/03/29 05:51:36;;;;;;;;;28.00;24.50;;;;;16.15;36.17;100372.91;5057469;28;45557;-50
2022/03/29 05:54:02;;;;;;;;;27.25;22.25;;;;;15.92;36.09;100347.19;5057087;28;45516;-47
2022/03/29 05:56:27;;;;;;;;;28.50;25.75;;;;;16.13;36.15;100387.88;5057147;28;45445;-49
2022/03/29 05:58:53;;;;;;;;;32.50;27.25;;;;;16.12;36.10;100391.72;5056587;28;45941;-52
2022/03/29 06:01:18;;;;;;;;;28.00;21.75;;;;;16.08;36.31;100393.38;5056525;28;45444;-52
2022/03/29 06:03:44;;;;;;;;;32.25;27.25;;;;;16.02;35.92;100377.78;5072465;28;45807;-53
2022/03/29 06:06:09;;;;;;;;;26.25;22.00;;;;;16.06;36.22;100378.91;5057017;28;45308;-52
2022/03/29 06:08:35;;;;;;;;;35.50;31.25;;;;;16.19;35.98;100387.94;5042578;28;45929;-54
2022/03/29 06:11:01;;;;;;;;;24.25;22.25;;;;;16.14;36.07;100394.25;5032871;28;45900;-50
2022/03/29 06:13:27;;;;;;;;;28.00;23.60;;;;;16.05;36.20;100396.63;5072175;28;45442;-48
2022/03/29 06:15:53;;;;;;;;;27.50;23.00;;;;;15.74;35.58;100349.16;5056736;28;45291;-52
2022/03/29 06:18:19;;;;;;;;;35.60;25.80;;;;;16.02;35.92;100397.16;5056431;28;45835;-53
2022/03/29 06:20:45;;;;;;;;;29.20;22.00;;;;;16.05;36.09;100399.41;5038349;28;45405;-49
2022/03/29 06:23:11;;;;;;;;;24.75;23.50;;;;;16.19;35.68;100399.84;5056642;28;45395;-50
2022/03/29 06:25:36;;;;;;;;;19.50;16.50;;;;;16.26;35.20;100394.09;5056549;28;45543;-50
2022/03/29 06:28:02;;;;;;;;;25.00;22.00;;;;;16.08;35.86;100373.13;5056361;28;45397;-52
2022/03/29 06:30:28;;;;;;;;;32.60;26.20;;;;;16.37;35.67;100422.75;5071750;28;45431;-50
2022/03/29 06:32:53;;;;;;;;;25.75;24.00;;;;;16.40;35.14;100416.72;5072201;28;45440;-54
2022/03/29 06:35:26;;;;;;;;;30.50;27.50;;;;;16.40;35.57;100416.72;5056733;28;45462;-51
2022/03/29 06:37:53;;;;;;;;;37.80;31.40;;;;;16.19;35.34;100376.84;5056372;28;46189;-52
2022/03/29 06:40:21;;;;;;;;;27.40;21.00;;;;;16.46;34.65;100425.91;5056084;28;45382;-53
2022/03/29 06:42:46;;;;;;;;;27.00;24.60;;;;;16.38;34.33;100414.19;5056019;28;45315;-53
2022/03/29 06:45:12;;;;;;;;;29.00;27.50;;;;;16.39;34.58;100417.81;5056337;28;45556;-51
2022/03/29 06:47:37;;;;;;;;;34.75;27.00;;;;;16.45;34.65;100408.47;5055904;28;45667;-49
2022/03/29 06:50:04;;;;;;;;;26.75;22.25;;;;;16.42;34.57;100392.34;5056039;28;45350;-48
2022/03/29 06:52:37;;;;;;;;;18.60;14.20;;;;;16.56;35.17;100403.88;5056192;28;45374;-53
2022/03/29 06:55:03;;;;;;;;;23.40;19.80;;;;;16.40;35.32;100378.75;5054500;28;45380;-50
2022/03/29 06:57:29;;;;;;;;;23.20;19.20;;;;;16.58;34.85;100400.81;5087725;27;47376;-52
2022/03/29 06:59:55;;;;;;;;;31.25;26.00;;;;;16.02;35.07;100313.28;5055820;28;45410;-50
2022/03/29 07:02:21;;;;;;;;;23.40;19.20;;;;;16.29;35.16;100346.53;5056303;28;45255;-51
2022/03/29 07:04:46;;;;;;;;;38.50;31.75;;;;;16.59;34.93;100402.50;5071560;28;45539;-52
2022/03/29 07:07:12;;;;;;;;;29.75;26.50;;;;;16.65;34.85;100410.59;5056007;28;46656;-51
2022/03/29 07:12:21;;;;;;;;;31.00;23.80;;;;;16.71;34.93;100394.84;5054974;28;45364;-51
2022/03/29 07:14:47;;;;;;;;;27.75;25.25;;;;;16.64;34.78;100386.78;5056014;28;45368;-52
2022/03/29 07:17:15;;;;;;;;;26.50;23.25;;;;;16.61;35.07;100392.00;5055984;28;45913;-50
2022/03/29 07:19:41;;;;;;;;;24.60;22.80;;;;;16.68;35.16;100392.63;5055851;28;45315;-52
2022/03/29 07:22:06;;;;;;;;;30.50;25.75;;;;;16.67;35.71;100385.41;5088335;27;45672;-54
2022/03/29 07:24:32;;;;;;;;;38.00;28.50;;;;;16.77;35.15;100399.34;5049978;28;45535;-50
2022/03/29 07:26:58;;;;;;;;;30.75;25.50;;;;;16.79;35.46;100391.63;5052145;28;45821;-51
2022/03/29 07:29:25;;;;;;;;;34.00;26.50;;;;;16.84;35.38;100387.22;5054553;28;45458;-52
2022/03/29 07:31:51;;;;;;;;;31.20;24.40;;;;;16.79;35.28;100366.69;5052629;28;45373;-50
2022/03/29 07:34:17;;;;;;;;;28.00;25.60;;;;;16.92;35.89;100384.00;5085034;27;45853;-54
2022/03/29 07:36:42;;;;;;;;;27.25;24.00;;;;;17.03;35.63;100373.84;5052480;28;46183;-52
2022/03/29 07:39:08;;;;;;;;;33.75;27.75;;;;;17.01;35.25;100378.78;5080849;27;45348;-54
2022/03/29 07:41:34;;;;;;;;;32.00;23.50;;;;;16.94;35.27;100360.47;5055551;28;45436;-54
2022/03/29 07:43:59;;;;;;;;;33.00;28.00;;;;;16.90;35.82;100364.00;5055730;28;45545;-53
2022/03/29 07:46:25;;;;;;;;;31.00;27.25;;;;;16.98;36.22;100371.00;5055102;28;46184;-54
2022/03/29 07:48:51;;;;;;;;;34.50;29.00;;;;;16.98;35.44;100374.63;5055545;28;45360;-51
2022/03/29 07:51:17;;;;;;;;;33.25;29.00;;;;;16.73;35.36;100339.19;5054329;28;45390;-51
2022/03/29 07:53:43;;;;;;;;;34.20;27.60;;;;;16.84;35.22;100365.91;5088168;27;45487;-53
2022/03/29 07:56:08;;;;;;;;;34.75;30.25;;;;;16.89;35.70;100360.41;5055174;28;46659;-55
2022/03/29 07:58:34;;;;;;;;;32.50;27.75;;;;;16.96;34.74;100364.91;5054680;28;45352;-49
2022/03/29 08:01:00;;;;;;;;;30.00;25.75;;;;;16.82;35.21;100334.84;5054974;28;45383;-51
2022/03/29 08:03:32;;;;;;;;;27.60;26.40;;;;;17.07;34.92;100358.34;5054961;28;45706;-51
2022/03/29 08:05:57;;;;;;;;;33.00;28.60;;;;;17.11;34.63;100348.41;5054543;28;45570;-51
2022/03/29 08:08:23;;;;;;;;;27.75;24.50;;;;;17.19;34.77;100349.88;5036641;28;45370;-51
2022/03/29 08:10:49;;;;;;;;;34.25;28.25;;;;;17.00;34.10;100327.22;5054750;28;45272;-51
2022/03/29 08:13:15;;;;;;;;;34.60;30.00;;;;;17.19;34.53;100345.13;5055070;28;45345;-52
2022/03/29 08:15:41;;;;;;;;;34.50;31.00;;;;;17.28;34.46;100350.22;5053261;28;47457;-50
2022/03/29 08:18:07;;;;;;;;;26.40;25.80;;;;;17.28;34.09;100347.44;4991630;27;45335;-50
2022/03/29 08:20:32;;;;;;;;;31.00;30.25;;;;;17.24;34.53;100338.78;5066533;28;45483;-47
2022/03/29 08:23:01;;;;;;;;;34.75;27.75;;;;;17.28;34.72;100339.94;5074845;28;45362;-52
2022/03/29 08:25:28;;;;;;;;;37.40;29.00;;;;;17.29;34.71;100326.91;5060239;28;47075;-47
2022/03/29 08:27:56;;;;;;;;;39.40;31.80;;;;;17.34;34.75;100329.69;5078212;28;45454;-49
2022/03/29 08:30:21;;;;;;;;;34.40;30.00;;;;;17.44;34.38;100324.22;5078634;28;45305;-51
2022/03/29 08:32:47;;;;;;;;;37.50;31.25;;;;;17.51;34.29;100326.78;5070917;28;45449;-49
2022/03/29 08:35:14;;;;;;;;;36.25;28.25;;;;;17.50;34.88;100325.06;5032523;28;45706;-48
2022/03/29 08:37:40;;;;;;;;;38.20;27.00;;;;;17.31;34.74;100299.75;4956978;28;45660;-53
2022/03/29 08:40:10;;;;;;;;;36.40;30.80;;;;;17.44;34.57;100324.22;5053720;28;45534;-55
2022/03/29 08:42:35;;;;;;;;;38.80;28.20;;;;;17.44;34.90;100315.91;5054031;28;45608;-47
2022/03/29 08:45:05;;;;;;;;;33.75;29.75;;;;;17.44;34.96;100315.06;5051777;28;45792;-54
2022/03/29 08:47:30;;;;;;;;;41.00;31.20;;;;;17.53;34.83;100310.69;5067583;28;45469;-50
2022/03/29 08:49:56;;;;;;;;;39.50;31.00;;;;;17.61;34.97;100317.66;5053635;28;45706;-52
2022/03/29 08:52:21;;;;;;;;;34.75;31.00;;;;;17.60;35.10;100300.16;5035784;28;45527;-49
2022/03/29 08:54:47;;;;;;;;;30.75;24.25;;;;;17.47;34.91;100287.59;5051910;28;46547;-52
2022/03/29 08:57:13;;;;;;;;;39.00;31.25;;;;;17.67;35.21;100296.31;5053790;28;45932;-50
2022/03/29 08:59:40;;;;;;;;;40.40;33.00;;;;;17.81;34.90;100304.97;5015001;28;45338;-55
2022/03/29 09:02:13;;;;;;;;;39.40;33.00;;;;;17.68;34.86;100292.44;5034060;28;45624;-52
2022/03/29 09:04:39;;;;;;;;;41.20;33.20;;;;;17.67;35.25;100276.91;5033701;28;45833;-55
2022/03/29 09:07:05;;;;;;;;;39.25;31.25;;;;;17.71;34.94;100261.34;5015415;28;45421;-52
2022/03/29 09:09:36;;;;;;;;;39.75;32.75;;;;;17.89;35.08;100285.03;5034132;28;45739;-53
2022/03/29 09:12:14;;;;;;;;;33.60;29.00;;;;;17.88;34.68;100266.72;5010311;28;45403;-51
2022/03/29 09:14:59;;;;;;;;;41.80;33.60;;;;;18.09;34.74;100284.28;5053518;28;45812;-53
2022/03/29 09:17:33;;;;;;;;;35.60;31.00;;;;;18.18;34.49;100292.91;5053740;28;45443;-57
2022/03/29 09:19:59;;;;;;;;;39.20;32.60;;;;;18.07;34.84;100283.72;5051609;28;45450;-53
2022/03/29 09:22:43;;;;;;;;;41.60;33.20;;;;;18.12;35.06;100289.28;5053785;28;45488;-55
2022/03/29 09:25:11;;;;;;;;;34.00;30.60;;;;;18.09;35.20;100278.72;5051882;28;47087;-50
2022/03/29 09:28:02;;;;;;;;;42.20;31.60;;;;;18.15;34.88;100276.81;5035260;28;45804;-57
2022/03/29 09:30:38;;;;;;;;;41.20;33.60;;;;;18.21;34.94;100281.25;5053331;28;45396;-53
2022/03/29 09:33:06;;;;;;;;;44.00;33.80;;;;;18.23;34.75;100289.28;5053107;28;45450;-52
2022/03/29 09:35:33;;;;;;;;;39.20;35.20;;;;;18.29;34.94;100285.41;5038631;28;45839;-51
2022/03/29 09:37:59;;;;;;;;;38.60;31.00;;;;;18.38;34.66;100286.56;5035028;28;45454;-51
2022/03/29 09:40:37;;;;;;;;;46.20;33.60;;;;;18.23;34.51;100262.38;5034749;28;45504;-51
2022/03/29 09:43:08;;;;;;;;;35.20;30.80;;;;;18.10;34.94;100229.59;5053164;28;45766;-49
2022/03/29 09:45:47;;;;;;;;;44.80;34.00;;;;;18.46;34.60;100284.34;4996345;28;47337;-52
2022/03/29 09:48:23;;;;;;;;;37.00;32.20;;;;;18.45;34.69;100274.34;5040808;28;45731;-50
2022/03/29 09:50:49;;;;;;;;;45.00;34.20;;;;;18.45;34.75;100261.28;5053230;28;45414;-52
2022/03/29 09:53:34;;;;;;;;;39.00;33.00;;;;;18.17;34.71;100207.06;5068393;28;45425;-50
2022/03/29 09:55:59;;;;;;;;;46.40;38.00;;;;;18.34;34.67;100234.59;5073782;27;45592;-49
2022/03/29 09:58:25;;;;;;;;;40.00;33.25;;;;;18.61;35.16;100256.56;5055578;28;45508;-55
2022/03/29 10:00:55;;;;;;;;;45.75;35.75;;;;;18.62;34.60;100243.50;5056756;28;45368;-56
2022/03/29 10:03:20;;;;;;;;;39.40;33.40;;;;;18.76;34.59;100247.38;5038931;28;45473;-52
2022/03/29 10:05:47;;;;;;;;;44.25;32.00;;;;;18.91;34.53;100254.03;5051550;28;45786;-54
2022/03/29 10:11:01;;;;;;;;;30.60;27.40;;;;;18.70;34.49;100242.94;5055047;28;45355;-52
2022/03/29 10:13:29;;;;;;;;;41.20;33.60;;;;;18.77;34.89;100245.41;5035631;28;46037;-54
2022/03/29 10:15:55;;;;;;;;;43.20;35.40;;;;;18.83;34.56;100235.97;5048260;28;46739;-58
2022/03/29 10:18:23;;;;;;;;;47.00;37.75;;;;;18.81;34.52;100238.19;5048419;28;45492;-52
2022/03/29 10:20:49;;;;;;;;;43.20;33.20;;;;;18.87;34.77;100231.53;5050383;28;45393;-56
2022/03/29 10:23:18;;;;;;;;;44.75;35.25;;;;;18.94;34.25;100228.47;5051022;28;45624;-52
2022/03/29 10:25:43;;;;;;;;;40.80;33.60;;;;;18.99;34.49;100222.06;5050545;28;45574;-49
2022/03/29 10:28:09;;;;;;;;;38.00;32.50;;;;;19.13;34.22;100227.88;5049225;28;45548;-54
2022/03/29 10:30:42;;;;;;;;;46.25;35.00;;;;;19.16;33.91;100225.34;5064920;28;45413;-53
2022/03/29 10:33:23;;;;;;;;;47.80;36.00;;;;;19.36;34.12;100230.03;5051151;28;45540;-57
2022/03/29 10:36:06;;;;;;;;;40.60;32.80;;;;;19.46;33.25;100206.91;5036553;27;46450;-51
2022/03/29 10:38:46;;;;;;;;;44.80;34.80;;;;;19.66;32.92;100224.63;5032683;28;45497;-53
2022/03/29 10:41:27;;;;;;;;;50.20;38.00;;;;;19.75;32.62;100219.28;5050670;28;45485;-53
2022/03/29 10:43:54;;;;;;;;;46.80;35.40;;;;;19.88;32.48;100217.81;5050402;28;45722;-54
2022/03/29 10:46:38;;;;;;;;;46.40;35.20;;;;;19.91;32.35;100209.72;5037829;28;46097;-52
2022/03/29 10:49:22;;;;;;;;;39.80;34.60;;;;;20.07;32.07;100218.03;5047825;28;46071;-50
2022/03/29 10:51:49;;;;;;;;;37.20;33.20;;;;;20.12;32.14;100215.19;5065480;28;45472;-53
2022/03/29 10:54:26;;;;;;;;;42.80;33.40;;;;;20.09;32.51;100204.63;5050744;28;46091;-55
2022/03/29 10:57:06;;;;;;;;;44.40;35.20;;;;;20.21;31.83;100179.19;5046974;28;48974;-51
2022/03/29 10:59:35;;;;;;;;;51.60;38.20;;;;;20.50;31.51;100192.34;5048980;28;45543;-49
2022/03/29 11:02:11;;;;;;;;;47.00;36.00;;;;;20.60;31.34;100183.03;5051035;28;45754;-55
2022/03/29 11:04:37;;;;;;;;;44.80;34.80;;;;;20.66;30.97;100190.22;5033440;28;45817;-52
2022/03/29 11:07:09;;;;;;;;;46.25;35.00;;;;;20.42;31.68;100154.78;5049127;28;45804;-54
2022/03/29 11:09:35;;;;;;;;;44.40;35.20;;;;;20.56;31.27;100187.53;5050323;28;45389;-50
2022/03/29 11:12:00;;;;;;;;;42.40;36.20;;;;;20.51;31.29;100177.28;5051332;28;45936;-51
2022/03/29 11:14:33;;;;;;;;;45.50;36.75;;;;;20.62;31.73;100182.72;5049924;28;45357;-49
2022/03/29 11:17:14;;;;;;;;;37.40;32.60;;;;;20.42;31.48;100165.06;5053399;28;45738;-53
2022/03/29 11:19:47;;;;;;;;;38.60;33.60;;;;;20.49;31.73;100176.72;5070870;28;45476;-53